createdAt,value
2023-07-03T00:00:32.814Z,137.64
2023-07-03T00:01:32.913Z,138.09
2023-07-03T00:02:33.005Z,135.96
2023-07-03T00:03:33.022Z,133.68
2023-07-03T00:04:33.103Z,139.41
2023-07-03T00:05:33.267Z,137.90
2023-07-03T00:06:33.227Z,137.45
2023-07-03T00:07:33.286Z,135.08
2023-07-03T00:08:33.338Z,135.30
2023-07-03T00:09:33.386Z,139.12
2023-07-03T00:10:33.460Z,142.29
2023-07-03T00:11:33.508Z,138.06
2023-07-03T00:12:33.535Z,137.50
2023-07-03T00:13:33.678Z,135.98
2023-07-03T00:14:33.685Z,136.38
2023-07-03T00:15:33.884Z,135.51
2023-07-03T00:16:33.819Z,132.84
2023-07-03T00:17:33.909Z,135.00
2023-07-03T00:18:33.922Z,134.67
2023-07-03T00:19:33.977Z,137.51
2023-07-03T00:20:34.031Z,139.76
2023-07-03T00:21:34.080Z,137.55
2023-07-03T00:22:34.161Z,137.80
2023-07-03T00:23:34.253Z,135.85
2023-07-03T00:24:34.270Z,139.91
2023-07-03T00:25:34.330Z,136.20
2023-07-03T00:26:34.376Z,137.44
2023-07-03T00:27:34.383Z,139.99
2023-07-03T00:28:34.466Z,140.28
2023-07-03T00:29:34.500Z,139.04
2023-07-03T00:30:34.567Z,142.60
2023-07-03T00:31:34.597Z,139.07
2023-07-03T00:32:34.643Z,137.12
2023-07-03T00:33:34.638Z,139.76
2023-07-03T00:34:34.690Z,140.32
2023-07-03T00:35:34.726Z,141.41
2023-07-03T00:36:34.771Z,139.52
2023-07-03T00:37:34.800Z,141.69
2023-07-03T00:38:34.830Z,140.44
2023-07-03T00:39:34.878Z,136.72
2023-07-03T00:40:34.879Z,139.48
2023-07-03T00:41:34.935Z,139.95
2023-07-03T00:42:34.931Z,137.41
2023-07-03T00:43:35.006Z,138.25
2023-07-03T00:44:35.006Z,139.24
2023-07-03T00:45:35.075Z,138.69
2023-07-03T00:46:35.161Z,140.21
2023-07-03T00:47:35.181Z,136.68
2023-07-03T00:48:35.197Z,140.19
2023-07-03T00:49:35.188Z,140.28
2023-07-03T00:50:35.258Z,137.33
2023-07-03T00:51:35.320Z,143.49
2023-07-03T00:52:35.322Z,139.06
2023-07-03T00:53:35.382Z,142.87
2023-07-03T00:54:35.433Z,140.73
2023-07-03T00:55:35.451Z,141.13
2023-07-03T00:56:35.568Z,140.46
2023-07-03T00:57:35.617Z,141.29
2023-07-03T00:58:35.618Z,138.81
2023-07-03T00:59:35.670Z,142.96
2023-07-03T01:00:35.734Z,141.92
2023-07-03T01:01:35.811Z,139.96
2023-07-03T01:02:35.789Z,141.40
2023-07-03T01:03:35.781Z,140.49
2023-07-03T01:04:36.012Z,142.04
2023-07-03T01:05:36.039Z,143.11
2023-07-03T01:06:35.930Z,143.26
2023-07-03T01:07:35.996Z,142.13
2023-07-03T01:08:35.996Z,140.85
2023-07-03T01:09:36.024Z,142.64
2023-07-03T01:10:36.059Z,145.18
2023-07-03T01:11:36.069Z,143.07
2023-07-03T01:12:36.086Z,141.98
2023-07-03T01:13:36.147Z,143.33
2023-07-03T01:14:36.208Z,138.96
2023-07-03T01:15:36.191Z,143.09
2023-07-03T01:16:36.284Z,146.23
2023-07-03T01:17:36.258Z,143.60
2023-07-03T01:18:36.220Z,141.68
2023-07-03T01:19:36.281Z,143.00
2023-07-03T01:20:36.234Z,143.91
2023-07-03T01:21:36.300Z,141.59
2023-07-03T01:22:36.300Z,143.42
2023-07-03T01:23:36.298Z,145.50
2023-07-03T01:24:36.311Z,140.43
2023-07-03T01:25:36.338Z,144.82
2023-07-03T01:26:36.325Z,147.66
2023-07-03T01:27:36.382Z,146.09
2023-07-03T01:28:36.341Z,146.24
2023-07-03T01:29:36.317Z,144.63
2023-07-03T01:30:36.368Z,142.23
2023-07-03T01:31:36.451Z,146.91
2023-07-03T01:32:36.404Z,144.15
2023-07-03T01:33:36.382Z,145.11
2023-07-03T01:34:36.380Z,147.37
2023-07-03T01:35:36.387Z,146.38
2023-07-03T01:36:36.396Z,143.31
2023-07-03T01:37:36.410Z,144.31
2023-07-03T01:38:36.412Z,145.94
2023-07-03T01:39:36.426Z,144.42
2023-07-03T01:40:36.426Z,147.79
2023-07-03T01:41:36.471Z,146.88
2023-07-03T01:42:36.484Z,146.44
2023-07-03T01:43:36.484Z,143.09
2023-07-03T01:44:36.490Z,145.63
2023-07-03T01:45:36.558Z,145.09
2023-07-03T01:46:36.689Z,146.83
2023-07-03T01:47:36.626Z,148.25
2023-07-03T01:48:36.574Z,142.01
2023-07-03T01:49:36.628Z,145.81
2023-07-03T01:50:36.660Z,147.51
2023-07-03T01:51:36.664Z,144.08
2023-07-03T01:52:36.827Z,147.99
2023-07-03T01:53:36.774Z,143.60
2023-07-03T01:54:36.796Z,146.41
2023-07-03T01:55:36.752Z,146.67
2023-07-03T01:56:36.839Z,146.78
2023-07-03T01:57:36.850Z,147.68
2023-07-03T01:58:36.861Z,145.10
2023-07-03T01:59:36.858Z,146.73
2023-07-03T02:00:36.926Z,145.41
2023-07-03T02:01:36.961Z,147.37
2023-07-03T02:02:37.069Z,145.26
2023-07-03T02:03:37.072Z,145.18
2023-07-03T02:04:37.059Z,143.92
2023-07-03T02:05:37.066Z,150.43
2023-07-03T02:06:37.070Z,145.87
2023-07-03T02:07:37.128Z,147.88
2023-07-03T02:08:37.128Z,148.16
2023-07-03T02:09:37.084Z,149.80
2023-07-03T02:10:37.255Z,148.61
2023-07-03T02:11:37.149Z,144.66
2023-07-03T02:12:37.158Z,146.42
2023-07-03T02:13:37.169Z,147.47
2023-07-03T02:14:37.162Z,147.07
2023-07-03T02:15:37.170Z,148.67
2023-07-03T02:16:37.201Z,148.15
2023-07-03T02:17:37.230Z,144.04
2023-07-03T02:18:37.198Z,143.63
2023-07-03T02:19:37.187Z,146.33
2023-07-03T02:20:37.212Z,147.54
2023-07-03T02:21:37.180Z,146.12
2023-07-03T02:22:39.371Z,148.29
2023-07-03T02:23:37.176Z,152.02
2023-07-03T02:24:37.205Z,150.95
2023-07-03T02:25:37.135Z,146.63
2023-07-03T02:26:37.147Z,150.18
2023-07-03T02:27:37.160Z,148.77
2023-07-03T02:28:37.208Z,145.84
2023-07-03T02:29:37.194Z,148.77
2023-07-03T02:30:37.153Z,147.09
2023-07-03T02:31:37.141Z,148.56
2023-07-03T02:32:37.826Z,148.54
2023-07-03T02:33:37.095Z,150.31
2023-07-03T02:34:37.098Z,148.93
2023-07-03T02:35:37.053Z,148.74
2023-07-03T02:36:37.113Z,148.91
2023-07-03T02:37:37.111Z,146.60
2023-07-03T02:38:37.085Z,150.59
2023-07-03T02:39:37.054Z,150.35
2023-07-03T02:40:37.107Z,150.85
2023-07-03T02:41:37.049Z,149.80
2023-07-03T02:42:37.056Z,149.44
2023-07-03T02:43:37.022Z,149.34
2023-07-03T02:44:37.070Z,147.40
2023-07-03T02:45:37.046Z,146.99
2023-07-03T02:46:37.091Z,147.18
2023-07-03T02:47:37.180Z,143.30
2023-07-03T02:48:36.987Z,149.02
2023-07-03T02:49:37.028Z,148.62
2023-07-03T02:50:37.014Z,148.81
2023-07-03T02:51:36.966Z,145.60
2023-07-03T02:52:37.021Z,150.42
2023-07-03T02:53:36.976Z,147.73
2023-07-03T02:54:36.947Z,146.95
2023-07-03T02:55:36.921Z,147.24
2023-07-03T02:56:36.936Z,149.82
2023-07-03T02:57:36.918Z,149.95
2023-07-03T02:58:36.904Z,148.29
2023-07-03T02:59:36.896Z,146.65
2023-07-03T03:00:36.951Z,152.57
2023-07-03T03:01:36.907Z,147.45
2023-07-03T03:02:36.990Z,149.64
2023-07-03T03:03:36.973Z,149.09
2023-07-03T03:04:36.983Z,151.33
2023-07-03T03:05:36.899Z,149.23
2023-07-03T03:06:36.972Z,149.75
2023-07-03T03:07:36.851Z,149.20
2023-07-03T03:08:36.863Z,147.07
2023-07-03T03:09:36.840Z,147.53
2023-07-03T03:10:36.856Z,149.64
2023-07-03T03:11:36.790Z,149.36
2023-07-03T03:12:36.788Z,145.94
2023-07-03T03:13:36.852Z,147.16
2023-07-03T03:14:36.816Z,145.71
2023-07-03T03:15:36.812Z,149.95
2023-07-03T03:16:36.856Z,148.26
2023-07-03T03:17:37.360Z,148.05
2023-07-03T03:18:36.779Z,150.09
2023-07-03T03:19:36.774Z,149.65
2023-07-03T03:20:36.754Z,149.44
2023-07-03T03:21:36.757Z,150.50
2023-07-03T03:22:36.797Z,151.99
2023-07-03T03:23:36.736Z,148.76
2023-07-03T03:24:36.740Z,150.06
2023-07-03T03:25:36.729Z,148.57
2023-07-03T03:26:36.725Z,150.34
2023-07-03T03:27:36.695Z,149.96
2023-07-03T03:28:36.714Z,148.02
2023-07-03T03:29:36.725Z,149.95
2023-07-03T03:30:36.719Z,146.82
2023-07-03T03:31:36.721Z,147.37
2023-07-03T03:32:36.707Z,149.23
2023-07-03T03:33:36.662Z,149.94
2023-07-03T03:34:36.661Z,151.30
2023-07-03T03:35:36.690Z,150.44
2023-07-03T03:36:36.671Z,150.19
2023-07-03T03:37:36.659Z,150.77
2023-07-03T03:38:36.612Z,146.95
2023-07-03T03:39:36.617Z,149.38
2023-07-03T03:40:36.734Z,153.19
2023-07-03T03:41:36.647Z,151.84
2023-07-03T03:42:36.632Z,150.26
2023-07-03T03:43:36.588Z,152.08
2023-07-03T03:44:36.609Z,150.96
2023-07-03T03:45:36.594Z,150.77
2023-07-03T03:46:36.652Z,149.26
2023-07-03T03:47:36.632Z,152.45
2023-07-03T03:48:36.799Z,151.31
2023-07-03T03:49:36.569Z,149.36
2023-07-03T03:50:36.520Z,151.72
2023-07-03T03:51:36.545Z,150.18
2023-07-03T03:52:36.530Z,151.27
2023-07-03T03:53:36.536Z,152.18
2023-07-03T03:54:36.509Z,150.87
2023-07-03T03:55:36.511Z,151.57
2023-07-03T03:56:36.492Z,150.47
2023-07-03T03:57:36.541Z,151.65
2023-07-03T03:58:36.529Z,152.04
2023-07-03T03:59:36.497Z,151.33
2023-07-03T04:00:36.480Z,151.22
2023-07-03T04:01:36.525Z,148.29
2023-07-03T04:02:36.548Z,150.53
2023-07-03T04:03:36.471Z,142.10
2023-07-03T04:04:36.574Z,140.24
2023-07-03T04:05:36.429Z,133.88
2023-07-03T04:06:36.429Z,129.24
2023-07-03T04:07:36.414Z,120.52
2023-07-03T04:08:36.406Z,117.73
2023-07-03T04:09:36.418Z,113.58
2023-07-03T04:10:36.427Z,105.65
2023-07-03T04:11:36.410Z,100.22
2023-07-03T04:12:36.437Z,96.00
2023-07-03T04:13:36.414Z,90.99
2023-07-03T04:14:36.387Z,85.18
2023-07-03T04:15:36.376Z,79.08
2023-07-03T04:16:36.398Z,75.15
2023-07-03T04:17:36.371Z,69.61
2023-07-03T04:18:36.342Z,65.12
2023-07-03T04:19:36.362Z,59.27
2023-07-03T04:20:36.328Z,56.06
2023-07-03T04:21:36.364Z,51.55
2023-07-03T04:22:36.326Z,48.34
2023-07-03T04:23:36.314Z,45.15
2023-07-03T04:24:36.313Z,41.16
2023-07-03T04:25:36.319Z,39.71
2023-07-03T04:26:36.277Z,34.13
2023-07-03T04:27:36.292Z,31.86
2023-07-03T04:28:36.328Z,26.83
2023-07-03T04:29:36.264Z,25.53
2023-07-03T04:30:36.247Z,25.12
2023-07-03T04:31:36.266Z,25.71
2023-07-03T04:32:38.266Z,25.00
2023-07-03T04:33:36.273Z,25.44
2023-07-03T04:34:36.321Z,26.59
2023-07-03T04:35:36.330Z,25.89
2023-07-03T04:36:36.410Z,25.97
2023-07-03T04:37:36.435Z,26.42
2023-07-03T04:38:36.432Z,26.30
2023-07-03T04:39:36.442Z,26.78
2023-07-03T04:40:36.499Z,27.51
2023-07-03T04:41:36.545Z,26.65
2023-07-03T04:42:36.574Z,27.23
2023-07-03T04:43:36.644Z,27.30
2023-07-03T04:44:36.686Z,26.99
2023-07-03T04:45:36.713Z,28.11
2023-07-03T04:46:36.750Z,27.63
2023-07-03T04:47:36.791Z,28.52
2023-07-03T04:48:36.799Z,28.39
2023-07-03T04:49:36.845Z,29.10
2023-07-03T04:50:36.887Z,28.04
2023-07-03T04:51:36.882Z,28.65
2023-07-03T04:52:36.883Z,27.87
2023-07-03T04:53:36.958Z,28.96
2023-07-03T04:54:36.927Z,29.16
2023-07-03T04:55:36.980Z,27.64
2023-07-03T04:56:36.997Z,28.18
2023-07-03T04:57:37.074Z,29.37
2023-07-03T04:58:37.061Z,29.66
2023-07-03T04:59:37.113Z,30.99
2023-07-03T05:00:37.165Z,30.19
2023-07-03T05:01:37.187Z,30.54
2023-07-03T05:02:37.265Z,31.20
2023-07-03T05:03:37.241Z,32.73
2023-07-03T05:04:37.355Z,31.07
2023-07-03T05:05:37.301Z,32.53
2023-07-03T05:06:37.321Z,32.76
2023-07-03T05:07:37.328Z,31.61
2023-07-03T05:08:37.378Z,32.62
2023-07-03T05:09:37.418Z,31.28
2023-07-03T05:10:37.444Z,30.98
2023-07-03T05:11:37.501Z,31.79
2023-07-03T05:12:37.605Z,30.90
2023-07-03T05:13:37.548Z,31.49
2023-07-03T05:14:37.555Z,31.61
2023-07-03T05:15:37.732Z,32.00
2023-07-03T05:16:37.629Z,31.77
2023-07-03T05:17:37.708Z,32.50
2023-07-03T05:18:37.731Z,31.43
2023-07-03T05:19:37.714Z,32.39
2023-07-03T05:20:37.794Z,32.30
2023-07-03T05:21:37.800Z,33.03
2023-07-03T05:22:37.836Z,31.46
2023-07-03T05:23:37.979Z,34.76
2023-07-03T05:24:37.925Z,33.57
2023-07-03T05:25:38.010Z,33.03
2023-07-03T05:26:38.019Z,34.23
2023-07-03T05:27:38.018Z,33.26
2023-07-03T05:28:38.036Z,33.17
2023-07-03T05:29:38.106Z,34.47
2023-07-03T05:30:38.172Z,34.42
2023-07-03T05:31:38.257Z,32.55
2023-07-03T05:32:38.262Z,31.67
2023-07-03T05:33:38.520Z,31.13
2023-07-03T05:34:38.929Z,27.83
2023-07-03T05:35:48.466Z,25.00
2023-07-03T05:36:39.423Z,25.14
2023-07-03T05:37:38.493Z,24.00
2023-07-03T05:38:39.050Z,25.96
2023-07-03T05:39:38.398Z,25.63
2023-07-03T05:40:39.214Z,25.37
2023-07-03T05:41:38.310Z,25.72
2023-07-03T05:42:38.321Z,29.02
2023-07-03T05:43:38.303Z,27.58
2023-07-03T05:44:38.308Z,25.46
2023-07-03T05:45:38.277Z,27.62
2023-07-03T05:46:38.276Z,28.98
2023-07-03T05:47:38.318Z,26.21
2023-07-03T05:48:38.231Z,30.90
2023-07-03T05:49:38.277Z,32.86
2023-07-03T05:50:38.274Z,36.75
2023-07-03T05:51:38.240Z,36.82
2023-07-03T05:52:38.283Z,35.46
2023-07-03T05:53:38.411Z,35.46
2023-07-03T05:54:38.361Z,35.10
2023-07-03T05:55:38.304Z,36.11
2023-07-03T05:56:38.284Z,37.28
2023-07-03T05:57:38.322Z,39.27
2023-07-03T05:58:38.412Z,41.29
2023-07-03T05:59:38.407Z,43.64
2023-07-03T06:00:39.042Z,46.60
2023-07-03T06:01:38.673Z,51.00
2023-07-03T06:02:38.676Z,54.66
2023-07-03T06:03:38.670Z,55.92
2023-07-03T06:04:38.707Z,59.51
2023-07-03T06:05:38.762Z,62.68
2023-07-03T06:06:38.791Z,65.63
2023-07-03T06:07:38.794Z,68.37
2023-07-03T06:08:38.835Z,71.73
2023-07-03T06:09:38.897Z,73.25
2023-07-03T06:10:38.956Z,76.16
2023-07-03T06:11:39.014Z,80.21
2023-07-03T06:12:39.041Z,80.67
2023-07-03T06:13:39.099Z,84.27
2023-07-03T06:14:39.090Z,86.08
2023-07-03T06:15:39.153Z,87.62
2023-07-03T06:16:39.180Z,89.42
2023-07-03T06:17:39.207Z,92.37
2023-07-03T06:18:39.272Z,91.94
2023-07-03T06:19:39.289Z,96.82
2023-07-03T06:20:39.308Z,99.00
2023-07-03T06:21:39.323Z,101.41
2023-07-03T06:22:39.333Z,101.91
2023-07-03T06:23:39.392Z,103.02
2023-07-03T06:24:39.490Z,106.51
2023-07-03T06:25:39.432Z,109.66
2023-07-03T06:26:39.521Z,111.14
2023-07-03T06:27:39.516Z,113.53
2023-07-03T06:28:39.562Z,115.44
2023-07-03T06:29:39.613Z,116.86
2023-07-03T06:30:39.627Z,116.16
2023-07-03T06:31:39.715Z,118.19
2023-07-03T06:32:39.702Z,118.71
2023-07-03T06:33:39.741Z,121.81
2023-07-03T06:34:39.709Z,118.88
2023-07-03T06:35:39.734Z,122.63
2023-07-03T06:36:40.096Z,124.10
2023-07-03T06:37:39.789Z,124.13
2023-07-03T06:38:40.036Z,127.18
2023-07-03T06:39:39.973Z,126.64
2023-07-03T06:40:39.844Z,129.04
2023-07-03T06:41:39.858Z,128.35
2023-07-03T06:42:40.268Z,130.93
2023-07-03T06:43:39.902Z,134.41
2023-07-03T06:44:39.953Z,129.67
2023-07-03T06:45:39.907Z,132.04
2023-07-03T06:46:40.016Z,132.64
2023-07-03T06:47:40.109Z,132.51
2023-07-03T06:48:40.003Z,132.30
2023-07-03T06:49:40.085Z,133.28
2023-07-03T06:50:40.044Z,133.44
2023-07-03T06:51:40.096Z,120.49
2023-07-03T06:52:40.101Z,105.48
2023-07-03T06:53:40.175Z,97.49
2023-07-03T06:54:40.176Z,104.32
2023-07-03T06:55:40.304Z,104.10
2023-07-03T06:56:40.597Z,101.39
2023-07-03T06:57:40.345Z,102.63
2023-07-03T06:58:40.360Z,104.29
2023-07-03T06:59:43.023Z,103.89
2023-07-03T07:00:40.383Z,102.81
2023-07-03T07:01:40.408Z,108.40
2023-07-03T07:02:40.373Z,109.91
2023-07-03T07:03:40.441Z,112.95
2023-07-03T07:04:40.377Z,113.43
2023-07-03T07:05:40.516Z,111.28
2023-07-03T07:06:40.588Z,111.04
2023-07-03T07:07:40.378Z,110.96
2023-07-03T07:08:40.308Z,108.61
2023-07-03T07:09:40.335Z,108.86
2023-07-03T07:10:40.328Z,110.81
2023-07-03T07:11:40.696Z,108.48
2023-07-03T07:12:40.309Z,110.39
2023-07-03T07:13:40.317Z,108.23
2023-07-03T07:14:40.268Z,108.60
2023-07-03T07:15:40.276Z,110.35
2023-07-03T07:16:40.245Z,110.00
2023-07-03T07:17:51.056Z,108.49
2023-07-03T07:18:41.311Z,108.74
2023-07-03T07:19:40.216Z,109.45
2023-07-03T07:20:40.256Z,108.88
2023-07-03T07:21:40.243Z,109.66
2023-07-03T07:22:40.228Z,106.91
2023-07-03T07:23:40.179Z,111.39
2023-07-03T07:24:40.188Z,108.82
2023-07-03T07:25:40.188Z,107.60
2023-07-03T07:26:40.154Z,107.49
2023-07-03T07:27:40.366Z,101.00
2023-07-03T07:28:40.161Z,102.18
2023-07-03T07:29:40.180Z,105.00
2023-07-03T07:30:40.236Z,104.05
2023-07-03T07:31:42.264Z,100.10
2023-07-03T07:32:40.222Z,98.33
2023-07-03T07:33:40.203Z,91.76
2023-07-03T07:34:40.191Z,91.31
2023-07-03T07:35:40.199Z,83.89
2023-07-03T07:36:40.206Z,84.31
2023-07-03T07:37:40.247Z,84.26
2023-07-03T07:38:40.756Z,71.41
2023-07-03T07:39:40.204Z,63.69
2023-07-03T07:40:40.219Z,50.43
2023-07-03T07:41:40.228Z,43.79
2023-07-03T07:42:40.414Z,31.84
2023-07-03T07:43:40.310Z,23.89
2023-07-03T07:44:40.247Z,25.00
2023-07-03T07:45:40.222Z,25.51
2023-07-03T07:46:40.285Z,25.54
2023-07-03T07:47:40.304Z,25.32
2023-07-03T07:48:40.282Z,31.76
2023-07-03T07:49:40.287Z,34.25
2023-07-03T07:50:40.317Z,25.76
2023-07-03T07:51:40.330Z,28.01
2023-07-03T07:52:40.630Z,29.40
2023-07-03T07:53:40.378Z,28.05
2023-07-03T07:54:40.696Z,26.10
2023-07-03T07:55:40.761Z,25.22
2023-07-03T07:56:40.434Z,29.23
2023-07-03T07:57:40.522Z,28.62
2023-07-03T07:58:40.542Z,29.90
2023-07-03T07:59:40.628Z,27.33
2023-07-03T08:00:40.533Z,26.82
2023-07-03T08:01:40.785Z,25.80
2023-07-03T08:02:40.814Z,26.31
2023-07-03T08:03:40.619Z,26.56
2023-07-03T08:04:40.832Z,25.28
2023-07-03T08:05:40.601Z,30.40
2023-07-03T08:06:40.705Z,26.74
2023-07-03T08:07:40.680Z,26.64
2023-07-03T08:08:40.785Z,27.30
2023-07-03T08:09:40.716Z,25.86
2023-07-03T08:10:41.036Z,26.88
2023-07-03T08:11:41.012Z,26.19
2023-07-03T08:12:43.144Z,30.78
2023-07-03T08:13:40.975Z,31.69
2023-07-03T08:14:41.003Z,25.99
2023-07-03T08:15:41.137Z,27.53
2023-07-03T08:16:41.270Z,27.61
2023-07-03T08:17:41.240Z,30.27
2023-07-03T08:18:41.609Z,31.29
2023-07-03T08:19:41.556Z,30.22
2023-07-03T08:20:41.384Z,38.10
2023-07-03T08:21:41.735Z,39.15
2023-07-03T08:22:41.546Z,34.66
2023-07-03T08:23:41.534Z,38.02
2023-07-03T08:24:41.604Z,38.09
2023-07-03T08:25:41.790Z,42.06
2023-07-03T08:26:41.712Z,41.55
2023-07-03T08:27:41.903Z,44.00
2023-07-03T08:28:42.954Z,37.96
2023-07-03T08:29:41.994Z,38.56
2023-07-03T08:30:41.850Z,38.51
2023-07-03T08:31:42.380Z,42.34
2023-07-03T08:32:42.111Z,45.58
2023-07-03T08:33:42.136Z,42.88
2023-07-03T08:37:42.005Z,27.33
2023-07-03T08:38:42.130Z,21.70
2023-07-03T08:39:41.954Z,20.17
2023-07-03T08:40:41.981Z,12.34
2023-07-03T08:41:41.964Z,8.51
2023-07-03T08:42:41.971Z,26.29
2023-07-03T08:43:41.988Z,28.06
2023-07-03T08:44:41.912Z,24.60
2023-07-03T08:45:41.967Z,30.32
2023-07-03T08:46:42.192Z,26.10
2023-07-03T08:47:42.019Z,30.78
2023-07-03T08:48:42.015Z,23.57
2023-07-03T08:49:41.865Z,22.44
2023-07-03T08:50:41.930Z,26.89
2023-07-03T08:51:41.947Z,25.28
2023-07-03T08:52:41.892Z,27.12
2023-07-03T08:53:41.893Z,25.51
2023-07-03T08:54:42.018Z,26.70
2023-07-03T08:55:41.875Z,27.08
2023-07-03T08:56:41.874Z,25.00
2023-07-03T08:57:41.893Z,25.38
2023-07-03T08:58:41.855Z,26.17
2023-07-03T08:59:41.847Z,25.15
2023-07-03T09:00:41.838Z,26.72
2023-07-03T09:01:41.927Z,29.90
2023-07-03T09:02:41.982Z,32.61
2023-07-03T09:03:42.094Z,32.55
2023-07-03T09:04:42.130Z,36.11
2023-07-03T09:05:41.807Z,34.57
2023-07-03T09:06:41.805Z,33.88
2023-07-03T09:07:41.839Z,24.75
2023-07-03T09:08:41.808Z,28.37
2023-07-03T09:09:41.856Z,23.57
2023-07-03T09:10:41.756Z,25.43
2023-07-03T09:11:43.114Z,25.29
2023-07-03T09:12:42.592Z,27.31
2023-07-03T09:13:42.494Z,26.18
2023-07-03T09:14:42.064Z,25.00
2023-07-03T09:15:42.114Z,23.69
2023-07-03T09:16:42.137Z,26.51
2023-07-03T09:17:42.222Z,24.02
2023-07-03T09:18:42.305Z,25.65
2023-07-03T09:19:42.368Z,28.27
2023-07-03T09:20:42.262Z,32.68
2023-07-03T09:21:42.300Z,27.02
2023-07-03T09:22:42.466Z,28.50
2023-07-03T09:23:42.487Z,27.00
2023-07-03T09:24:42.370Z,27.62
2023-07-03T09:25:42.416Z,30.62
2023-07-03T09:26:42.469Z,36.29
2023-07-03T09:27:42.697Z,40.21
2023-07-03T09:28:42.655Z,41.86
2023-07-03T09:29:42.673Z,38.08
2023-07-03T09:30:42.691Z,38.89
2023-07-03T09:31:42.800Z,36.68
2023-07-03T09:32:42.711Z,25.00
2023-07-03T09:33:42.745Z,26.06
2023-07-03T09:34:42.793Z,22.86
2023-07-03T09:36:43.118Z,27.18
2023-07-03T09:37:42.882Z,28.18
2023-07-03T09:38:42.923Z,24.19
2023-07-03T09:39:42.961Z,26.21
2023-07-03T09:40:42.989Z,25.00
2023-07-03T09:41:43.010Z,23.96
2023-07-03T09:42:43.020Z,23.96
2023-07-03T09:43:43.081Z,24.95
2023-07-03T09:44:43.148Z,25.64
2023-07-03T09:45:44.568Z,26.68
2023-07-03T09:46:43.272Z,33.63
2023-07-03T09:47:43.536Z,31.59
2023-07-03T09:48:43.214Z,33.89
2023-07-03T09:49:43.368Z,38.54
2023-07-03T09:50:50.868Z,41.96
2023-07-03T09:51:44.453Z,42.01
2023-07-03T09:52:47.238Z,41.32
2023-07-03T09:53:44.247Z,37.91
2023-07-03T09:54:43.194Z,32.86
2023-07-03T09:55:43.241Z,27.94
2023-07-03T09:56:43.211Z,26.40
2023-07-03T09:57:43.231Z,22.85
2023-07-03T09:58:43.332Z,25.21
2023-07-03T09:59:43.160Z,27.09
2023-07-03T10:00:44.073Z,25.00
2023-07-03T10:03:43.240Z,24.80
2023-07-03T10:06:43.228Z,20.67
2023-07-03T10:07:43.475Z,19.16
2023-07-03T10:08:44.009Z,21.17
2023-07-03T10:11:43.285Z,18.47
2023-07-03T10:12:43.139Z,20.36
2023-07-03T10:13:44.063Z,19.58
2023-07-03T10:14:43.780Z,15.49
2023-07-03T10:15:43.068Z,13.50
2023-07-03T10:16:43.112Z,20.33
2023-07-03T10:17:43.245Z,25.00
2023-07-03T10:18:43.048Z,25.83
2023-07-03T10:19:43.048Z,27.07
2023-07-03T10:20:43.075Z,29.15
2023-07-03T10:21:43.684Z,28.64
2023-07-03T10:22:43.174Z,34.06
2023-07-03T10:23:43.386Z,35.59
2023-07-03T10:24:43.031Z,36.99
2023-07-03T10:25:43.013Z,37.11
2023-07-03T10:26:42.993Z,40.21
2023-07-03T10:27:42.991Z,39.62
2023-07-03T10:28:42.983Z,39.40
2023-07-03T10:29:43.014Z,42.01
2023-07-03T10:30:42.925Z,42.28
2023-07-03T10:31:46.083Z,43.16
2023-07-03T10:32:42.948Z,43.57
2023-07-03T10:33:42.936Z,45.24
2023-07-03T10:34:42.958Z,45.10
2023-07-03T10:35:42.933Z,44.59
2023-07-03T10:36:42.979Z,44.36
2023-07-03T10:37:42.918Z,42.35
2023-07-03T10:38:42.919Z,42.38
2023-07-03T10:39:43.047Z,43.11
2023-07-03T10:40:42.879Z,42.27
2023-07-03T10:41:42.910Z,42.25
2023-07-03T10:42:42.918Z,41.05
2023-07-03T10:43:42.876Z,41.72
2023-07-03T10:44:42.870Z,40.79
2023-07-03T10:45:42.906Z,40.44
2023-07-03T10:46:43.586Z,40.79
2023-07-03T10:47:42.868Z,40.76
2023-07-03T10:48:42.801Z,40.52
2023-07-03T10:49:42.840Z,40.15
2023-07-03T10:50:42.795Z,39.79
2023-07-03T10:51:42.807Z,39.45
2023-07-03T10:52:42.812Z,38.58
2023-07-03T10:53:42.776Z,38.95
2023-07-03T10:54:42.799Z,38.55
2023-07-03T10:55:42.821Z,36.57
2023-07-03T10:56:42.746Z,37.03
2023-07-03T10:57:42.737Z,37.88
2023-07-03T10:58:42.776Z,37.85
2023-07-03T10:59:42.765Z,42.02
2023-07-03T11:00:42.764Z,46.46
2023-07-03T11:01:42.758Z,49.24
2023-07-03T11:02:42.817Z,50.65
2023-07-03T11:03:43.835Z,52.63
2023-07-03T11:04:42.791Z,55.50
2023-07-03T11:05:42.697Z,58.32
2023-07-03T11:06:42.708Z,65.16
2023-07-03T11:07:42.702Z,70.14
2023-07-03T11:08:42.682Z,78.69
2023-07-03T11:09:42.697Z,81.44
2023-07-03T11:10:42.657Z,85.55
2023-07-03T11:11:42.840Z,89.50
2023-07-03T11:12:42.637Z,91.29
2023-07-03T11:13:42.719Z,93.37
2023-07-03T11:14:42.678Z,98.03
2023-07-03T11:15:42.656Z,100.82
2023-07-03T11:16:42.736Z,104.33
2023-07-03T11:22:42.640Z,107.70
2023-07-03T11:23:42.614Z,109.36
2023-07-03T11:24:42.552Z,113.32
2023-07-03T11:28:42.573Z,108.05
2023-07-03T11:29:42.538Z,111.16
2023-07-03T11:30:42.524Z,116.88
2023-07-03T11:31:42.566Z,124.66
2023-07-03T11:32:42.503Z,136.33
2023-07-03T11:36:50.399Z,137.59
2023-07-03T11:40:42.525Z,139.07
2023-07-03T11:43:42.431Z,137.89
2023-07-03T11:44:42.410Z,139.62
2023-07-03T11:45:42.419Z,142.75
2023-07-03T11:46:42.460Z,148.11
2023-07-03T11:47:42.448Z,154.98
2023-07-03T11:48:42.439Z,156.72
2023-07-03T11:49:42.395Z,158.18
2023-07-03T11:50:42.385Z,159.07
2023-07-03T11:51:42.396Z,160.24
2023-07-03T11:52:42.595Z,159.02
2023-07-03T11:53:42.375Z,158.67
2023-07-03T11:54:42.353Z,158.97
2023-07-03T11:55:42.365Z,159.31
2023-07-03T11:56:42.359Z,158.25
2023-07-03T11:57:42.327Z,158.07
2023-07-03T11:58:42.358Z,159.36
2023-07-03T11:59:42.324Z,160.17
2023-07-03T12:00:42.673Z,160.80
2023-07-03T12:01:42.294Z,160.20
2023-07-03T12:02:42.390Z,161.18
2023-07-03T12:03:42.306Z,161.14
2023-07-03T12:04:44.751Z,162.32
2023-07-03T12:05:42.390Z,162.41
2023-07-03T12:06:42.381Z,162.63
2023-07-03T12:07:42.329Z,163.57
2023-07-03T12:08:42.277Z,164.45
2023-07-03T12:09:42.258Z,168.31
2023-07-03T12:10:42.319Z,168.96
2023-07-03T12:11:42.228Z,166.40
2023-07-03T12:12:42.222Z,168.76
2023-07-03T12:13:42.270Z,171.21
2023-07-03T12:14:42.254Z,171.18
2023-07-03T12:15:42.217Z,172.20
2023-07-03T12:16:42.244Z,171.94
2023-07-03T12:17:42.224Z,172.64
2023-07-03T12:18:42.213Z,172.91
2023-07-03T12:19:42.195Z,173.72
2023-07-03T12:20:42.210Z,173.64
2023-07-03T12:21:42.181Z,176.16
2023-07-03T12:22:42.196Z,177.24
2023-07-03T12:23:42.182Z,177.45
2023-07-03T12:24:42.184Z,179.89
2023-07-03T12:25:42.159Z,177.48
2023-07-03T12:26:42.196Z,178.55
2023-07-03T12:27:42.140Z,180.41
2023-07-03T12:28:42.133Z,181.19
2023-07-03T12:29:42.153Z,180.86
2023-07-03T12:30:42.133Z,181.24
2023-07-03T12:31:42.255Z,181.40
2023-07-03T12:32:42.128Z,180.29
2023-07-03T12:33:42.159Z,182.68
2023-07-03T12:34:42.190Z,181.81
2023-07-03T12:35:42.245Z,183.73
2023-07-03T12:36:47.385Z,183.41
2023-07-03T12:37:43.276Z,183.44
2023-07-03T12:38:42.230Z,183.58
2023-07-03T12:39:42.268Z,183.69
2023-07-03T12:40:42.278Z,185.33
2023-07-03T12:41:42.407Z,184.72
2023-07-03T12:42:42.251Z,186.06
2023-07-03T12:43:42.230Z,184.79
2023-07-03T12:44:42.268Z,185.83
2023-07-03T12:45:42.169Z,185.06
2023-07-03T12:46:42.289Z,186.48
2023-07-03T12:47:42.264Z,187.60
2023-07-03T12:48:42.173Z,187.22
2023-07-03T12:49:42.185Z,187.30
2023-07-03T12:50:42.183Z,186.79
2023-07-03T12:51:42.268Z,186.58
2023-07-03T12:52:42.185Z,186.82
2023-07-03T12:53:42.163Z,186.84
2023-07-03T12:54:42.219Z,187.59
2023-07-03T12:55:42.229Z,187.08
2023-07-03T12:56:42.250Z,187.64
2023-07-03T12:57:42.251Z,187.18
2023-07-03T12:58:42.255Z,188.68
2023-07-03T12:59:42.321Z,187.47
2023-07-03T13:00:42.365Z,187.91
2023-07-03T13:01:42.284Z,188.82
2023-07-03T13:02:42.399Z,188.73
2023-07-03T13:03:42.298Z,189.78
2023-07-03T13:04:42.366Z,189.49
2023-07-03T13:05:42.431Z,190.33